sensor_id;sensor_type;location;lat;lon;timestamp;pressure;altitude;pressure_sealevel;temperature;humidity
24666;BME280;29726;53.532;-1.478;2023-04-19T00:00:34;102055.53;;;15.34;86.62
24666;BME280;29726;53.532;-1.478;2023-04-19T00:03:18;102077.00;;;15.40;86.59
24666;BME280;29726;53.532;-1.478;2023-04-19T00:06:04;102066.25;;;15.26;86.40
24666;BME280;29726;53.532;-1.478;2023-04-19T00:08:50;102057.81;;;15.26;86.50
24666;BME280;29726;53.532;-1.478;2023-04-19T00:11:34;102080.25;;;15.39;86.31
24666;BME280;29726;53.532;-1.478;2023-04-19T00:14:18;102048.41;;;15.20;86.41
24666;BME280;29726;53.532;-1.478;2023-04-19T00:17:03;102057.31;;;15.19;86.37
24666;BME280;29726;53.532;-1.478;2023-04-19T00:19:47;102038.63;;;15.03;86.23
24666;BME280;29726;53.532;-1.478;2023-04-19T00:22:31;102055.69;;;15.09;86.22
24666;BME280;29726;53.532;-1.478;2023-04-19T00:25:15;102051.66;;;15.10;86.23
24666;BME280;29726;53.532;-1.478;2023-04-19T00:28:02;102054.13;;;15.08;86.27
24666;BME280;29726;53.532;-1.478;2023-04-19T00:30:46;102047.06;;;15.03;86.23
24666;BME280;29726;53.532;-1.478;2023-04-19T00:33:31;102032.66;;;14.93;86.25
24666;BME280;29726;53.532;-1.478;2023-04-19T00:36:15;102022.25;;;14.81;86.15
24666;BME280;29726;53.532;-1.478;2023-04-19T00:38:59;102033.09;;;14.91;86.15
24666;BME280;29726;53.532;-1.478;2023-04-19T00:41:43;102054.13;;;15.08;86.23
24666;BME280;29726;53.532;-1.478;2023-04-19T00:44:27;102007.69;;;14.73;85.99
24666;BME280;29726;53.532;-1.478;2023-04-19T00:47:12;102049.03;;;14.94;86.02
24666;BME280;29726;53.532;-1.478;2023-04-19T00:49:57;102021.94;;;14.79;86.01
24666;BME280;29726;53.532;-1.478;2023-04-19T00:52:41;102025.53;;;14.79;86.04
24666;BME280;29726;53.532;-1.478;2023-04-19T00:55:26;102010.50;;;14.73;85.97
24666;BME280;29726;53.532;-1.478;2023-04-19T00:58:10;102005.16;;;14.66;85.88
24666;BME280;29726;53.532;-1.478;2023-04-19T01:00:54;101985.34;;;14.48;85.91
24666;BME280;29726;53.532;-1.478;2023-04-19T01:03:38;101976.28;;;14.44;86.01
24666;BME280;29726;53.532;-1.478;2023-04-19T01:06:22;102017.97;;;14.67;85.99
24666;BME280;29726;53.532;-1.478;2023-04-19T01:09:06;102039.94;;;14.81;86.07
24666;BME280;29726;53.532;-1.478;2023-04-19T01:11:51;102028.75;;;14.69;85.91
24666;BME280;29726;53.532;-1.478;2023-04-19T01:14:35;101984.53;;;14.39;85.96
24666;BME280;29726;53.532;-1.478;2023-04-19T01:17:19;101985.31;;;14.39;85.95
24666;BME280;29726;53.532;-1.478;2023-04-19T01:20:05;102010.63;;;14.48;85.94
24666;BME280;29726;53.532;-1.478;2023-04-19T01:22:50;101988.81;;;14.31;86.01
24666;BME280;29726;53.532;-1.478;2023-04-19T01:25:34;102030.19;;;14.52;86.14
24666;BME280;29726;53.532;-1.478;2023-04-19T01:28:18;102018.09;;;14.42;86.21
24666;BME280;29726;53.532;-1.478;2023-04-19T01:31:02;101978.78;;;14.21;86.05
24666;BME280;29726;53.532;-1.478;2023-04-19T01:33:46;101970.56;;;14.14;86.25
24666;BME280;29726;53.532;-1.478;2023-04-19T01:36:30;102005.22;;;14.32;86.26
24666;BME280;29726;53.532;-1.478;2023-04-19T01:39:15;102004.44;;;14.32;86.27
24666;BME280;29726;53.532;-1.478;2023-04-19T01:41:59;101989.09;;;14.24;86.14
24666;BME280;29726;53.532;-1.478;2023-04-19T01:44:43;102012.16;;;14.40;86.29
24666;BME280;29726;53.532;-1.478;2023-04-19T01:47:28;101987.66;;;14.19;86.27
24666;BME280;29726;53.532;-1.478;2023-04-19T01:50:11;101971.63;;;14.07;86.16
24666;BME280;29726;53.532;-1.478;2023-04-19T01:52:57;101982.81;;;14.20;86.22
24666;BME280;29726;53.532;-1.478;2023-04-19T01:55:44;101976.00;;;14.08;86.20
24666;BME280;29726;53.532;-1.478;2023-04-19T01:58:28;101982.59;;;14.14;86.02
24666;BME280;29726;53.532;-1.478;2023-04-19T02:01:12;101963.31;;;14.04;86.18
24666;BME280;29726;53.532;-1.478;2023-04-19T02:03:56;102021.81;;;14.39;86.18
24666;BME280;29726;53.532;-1.478;2023-04-19T02:06:40;101970.59;;;14.01;86.16
24666;BME280;29726;53.532;-1.478;2023-04-19T02:09:24;101997.19;;;14.22;86.20
24666;BME280;29726;53.532;-1.478;2023-04-19T02:12:08;101979.13;;;14.10;86.35
24666;BME280;29726;53.532;-1.478;2023-04-19T02:14:53;101953.00;;;14.01;86.34
24666;BME280;29726;53.532;-1.478;2023-04-19T02:17:40;101987.41;;;14.14;86.20
24666;BME280;29726;53.532;-1.478;2023-04-19T02:20:24;102009.28;;;14.31;86.37
24666;BME280;29726;53.532;-1.478;2023-04-19T02:23:08;102002.66;;;14.25;86.04
24666;BME280;29726;53.532;-1.478;2023-04-19T02:25:52;102003.91;;;14.24;86.29
24666;BME280;29726;53.532;-1.478;2023-04-19T02:28:36;101990.13;;;14.17;86.46
24666;BME280;29726;53.532;-1.478;2023-04-19T02:31:22;101975.66;;;14.06;86.43
24666;BME280;29726;53.532;-1.478;2023-04-19T02:34:06;101966.13;;;14.04;86.44
24666;BME280;29726;53.532;-1.478;2023-04-19T02:36:49;101947.22;;;13.83;86.43
24666;BME280;29726;53.532;-1.478;2023-04-19T02:39:33;101946.63;;;13.88;86.61
24666;BME280;29726;53.532;-1.478;2023-04-19T02:42:17;101942.56;;;13.89;86.35
24666;BME280;29726;53.532;-1.478;2023-04-19T02:45:05;101989.44;;;14.13;86.48
24666;BME280;29726;53.532;-1.478;2023-04-19T02:47:49;101946.44;;;13.82;86.36
24666;BME280;29726;53.532;-1.478;2023-04-19T02:50:36;101938.78;;;13.83;86.53
24666;BME280;29726;53.532;-1.478;2023-04-19T02:53:20;101948.06;;;13.92;86.48
24666;BME280;29726;53.532;-1.478;2023-04-19T02:56:04;101937.66;;;13.80;86.52
24666;BME280;29726;53.532;-1.478;2023-04-19T02:58:48;101930.38;;;13.83;86.69
24666;BME280;29726;53.532;-1.478;2023-04-19T03:01:32;101912.00;;;13.69;86.68
24666;BME280;29726;53.532;-1.478;2023-04-19T03:04:16;101921.09;;;13.73;86.59
24666;BME280;29726;53.532;-1.478;2023-04-19T03:07:00;101921.34;;;13.66;86.76
24666;BME280;29726;53.532;-1.478;2023-04-19T03:09:44;101988.47;;;14.07;86.67
24666;BME280;29726;53.532;-1.478;2023-04-19T03:12:28;101963.94;;;13.86;86.79
24666;BME280;29726;53.532;-1.478;2023-04-19T03:15:12;101946.56;;;13.79;86.79
24666;BME280;29726;53.532;-1.478;2023-04-19T03:17:56;101931.53;;;13.73;86.70
24666;BME280;29726;53.532;-1.478;2023-04-19T03:20:40;101919.56;;;13.60;86.85
24666;BME280;29726;53.532;-1.478;2023-04-19T03:23:28;101903.56;;;13.48;87.03
24666;BME280;29726;53.532;-1.478;2023-04-19T03:26:12;101933.66;;;13.69;86.98
24666;BME280;29726;53.532;-1.478;2023-04-19T03:28:56;101938.06;;;13.70;87.02
24666;BME280;29726;53.532;-1.478;2023-04-19T03:31:39;101910.50;;;13.56;86.75
24666;BME280;29726;53.532;-1.478;2023-04-19T03:34:23;101921.13;;;13.61;87.03
24666;BME280;29726;53.532;-1.478;2023-04-19T03:37:07;101966.44;;;13.84;86.95
24666;BME280;29726;53.532;-1.478;2023-04-19T03:39:51;101915.88;;;13.50;86.98
24666;BME280;29726;53.532;-1.478;2023-04-19T03:42:35;101973.34;;;13.92;87.00
24666;BME280;29726;53.532;-1.478;2023-04-19T03:45:19;101921.38;;;13.54;86.92
24666;BME280;29726;53.532;-1.478;2023-04-19T03:48:03;101921.81;;;13.52;87.07
24666;BME280;29726;53.532;-1.478;2023-04-19T03:50:47;101930.47;;;13.58;87.10
24666;BME280;29726;53.532;-1.478;2023-04-19T03:53:31;101935.06;;;13.64;87.33
24666;BME280;29726;53.532;-1.478;2023-04-19T03:56:15;101931.25;;;13.58;87.13
24666;BME280;29726;53.532;-1.478;2023-04-19T03:58:59;101932.94;;;13.56;87.40
24666;BME280;29726;53.532;-1.478;2023-04-19T04:01:43;101917.44;;;13.51;87.28
24666;BME280;29726;53.532;-1.478;2023-04-19T04:04:27;101930.25;;;13.52;87.44
24666;BME280;29726;53.532;-1.478;2023-04-19T04:07:11;101918.16;;;13.43;87.37
24666;BME280;29726;53.532;-1.478;2023-04-19T04:09:55;101901.78;;;13.41;87.57
24666;BME280;29726;53.532;-1.478;2023-04-19T04:12:39;101912.22;;;13.41;87.79
24666;BME280;29726;53.532;-1.478;2023-04-19T04:15:23;101894.38;;;13.35;87.53
24666;BME280;29726;53.532;-1.478;2023-04-19T04:18:06;101910.75;;;13.49;87.67
24666;BME280;29726;53.532;-1.478;2023-04-19T04:20:50;101917.72;;;13.44;87.64
24666;BME280;29726;53.532;-1.478;2023-04-19T04:23:34;101925.09;;;13.51;87.63
24666;BME280;29726;53.532;-1.478;2023-04-19T04:26:18;101911.97;;;13.48;87.87
24666;BME280;29726;53.532;-1.478;2023-04-19T04:29:18;101886.56;;;13.30;87.75
24666;BME280;29726;53.532;-1.478;2023-04-19T04:32:03;101937.91;;;13.52;88.10
24666;BME280;29726;53.532;-1.478;2023-04-19T04:34:47;101924.66;;;13.40;88.07
24666;BME280;29726;53.532;-1.478;2023-04-19T04:37:34;101942.59;;;13.55;88.04
24666;BME280;29726;53.532;-1.478;2023-04-19T04:40:19;101943.38;;;13.55;88.04
24666;BME280;29726;53.532;-1.478;2023-04-19T04:43:04;101980.03;;;13.73;87.89
24666;BME280;29726;53.532;-1.478;2023-04-19T04:45:49;101921.31;;;13.32;88.05
24666;BME280;29726;53.532;-1.478;2023-04-19T04:48:32;101916.38;;;13.36;88.35
24666;BME280;29726;53.532;-1.478;2023-04-19T04:51:16;101910.56;;;13.31;88.20
24666;BME280;29726;53.532;-1.478;2023-04-19T04:54:00;101939.91;;;13.51;88.23
24666;BME280;29726;53.532;-1.478;2023-04-19T04:56:45;101935.44;;;13.41;88.13
24666;BME280;29726;53.532;-1.478;2023-04-19T04:59:28;101896.56;;;13.19;88.52
24666;BME280;29726;53.532;-1.478;2023-04-19T05:02:13;101923.91;;;13.39;88.55
24666;BME280;29726;53.532;-1.478;2023-04-19T05:04:57;101900.03;;;13.23;88.50
24666;BME280;29726;53.532;-1.478;2023-04-19T05:07:42;101911.91;;;13.27;88.60
24666;BME280;29726;53.532;-1.478;2023-04-19T05:10:25;101955.50;;;13.52;88.80
24666;BME280;29726;53.532;-1.478;2023-04-19T05:13:09;101940.91;;;13.45;88.76
24666;BME280;29726;53.532;-1.478;2023-04-19T05:15:56;101911.34;;;13.19;88.76
24666;BME280;29726;53.532;-1.478;2023-04-19T05:18:40;101952.50;;;13.47;88.96
24666;BME280;29726;53.532;-1.478;2023-04-19T05:21:24;101934.78;;;13.37;88.84
24666;BME280;29726;53.532;-1.478;2023-04-19T05:24:09;101954.75;;;13.39;89.00
24666;BME280;29726;53.532;-1.478;2023-04-19T05:26:53;101935.81;;;13.31;89.14
24666;BME280;29726;53.532;-1.478;2023-04-19T05:29:37;101941.31;;;13.34;89.24
24666;BME280;29726;53.532;-1.478;2023-04-19T05:32:21;101948.47;;;13.35;89.01
24666;BME280;29726;53.532;-1.478;2023-04-19T05:35:05;101947.56;;;13.38;89.04
24666;BME280;29726;53.532;-1.478;2023-04-19T05:37:49;101939.50;;;13.28;89.18
24666;BME280;29726;53.532;-1.478;2023-04-19T05:40:36;101965.19;;;13.39;88.97
24666;BME280;29726;53.532;-1.478;2023-04-19T05:43:21;101940.94;;;13.32;89.41
24666;BME280;29726;53.532;-1.478;2023-04-19T05:46:05;101939.94;;;13.27;89.30
24666;BME280;29726;53.532;-1.478;2023-04-19T05:48:49;101916.44;;;13.12;89.07
24666;BME280;29726;53.532;-1.478;2023-04-19T05:51:33;101919.69;;;13.10;89.16
24666;BME280;29726;53.532;-1.478;2023-04-19T05:54:17;101964.84;;;13.37;89.30
24666;BME280;29726;53.532;-1.478;2023-04-19T05:57:01;101959.00;;;13.31;89.61
24666;BME280;29726;53.532;-1.478;2023-04-19T05:59:46;101946.38;;;13.27;89.51
24666;BME280;29726;53.532;-1.478;2023-04-19T06:02:33;101937.50;;;13.16;89.81
24666;BME280;29726;53.532;-1.478;2023-04-19T06:05:17;101961.59;;;13.38;89.63
24666;BME280;29726;53.532;-1.478;2023-04-19T06:08:00;101979.00;;;13.46;89.62
24666;BME280;29726;53.532;-1.478;2023-04-19T06:10:45;101947.94;;;13.28;89.83
24666;BME280;29726;53.532;-1.478;2023-04-19T06:13:30;101957.34;;;13.34;89.88
24666;BME280;29726;53.532;-1.478;2023-04-19T06:16:14;101942.00;;;13.26;89.78
24666;BME280;29726;53.532;-1.478;2023-04-19T06:18:58;101988.72;;;13.54;90.18
24666;BME280;29726;53.532;-1.478;2023-04-19T06:21:42;101949.16;;;13.27;90.20
24666;BME280;29726;53.532;-1.478;2023-04-19T06:24:26;101962.16;;;13.33;90.25
24666;BME280;29726;53.532;-1.478;2023-04-19T06:27:11;101961.50;;;13.29;90.03
24666;BME280;29726;53.532;-1.478;2023-04-19T06:29:55;101974.16;;;13.34;90.46
24666;BME280;29726;53.532;-1.478;2023-04-19T06:32:39;101974.59;;;13.32;90.28
24666;BME280;29726;53.532;-1.478;2023-04-19T06:35:23;101996.16;;;13.48;90.01
24666;BME280;29726;53.532;-1.478;2023-04-19T06:38:08;101974.59;;;13.32;90.07
24666;BME280;29726;53.532;-1.478;2023-04-19T06:40:52;101968.34;;;13.28;90.23
24666;BME280;29726;53.532;-1.478;2023-04-19T06:43:36;101956.78;;;13.27;90.24
24666;BME280;29726;53.532;-1.478;2023-04-19T06:46:20;101963.97;;;13.27;90.36
24666;BME280;29726;53.532;-1.478;2023-04-19T06:49:04;101955.31;;;13.22;90.09
24666;BME280;29726;53.532;-1.478;2023-04-19T06:51:48;101948.06;;;13.12;90.22
24666;BME280;29726;53.532;-1.478;2023-04-19T06:54:32;101977.84;;;13.43;90.24
24666;BME280;29726;53.532;-1.478;2023-04-19T06:57:19;102010.59;;;13.59;90.35
24666;BME280;29726;53.532;-1.478;2023-04-19T07:00:04;101946.72;;;13.17;90.33
24666;BME280;29726;53.532;-1.478;2023-04-19T07:02:49;101957.34;;;13.22;90.21
24666;BME280;29726;53.532;-1.478;2023-04-19T07:05:35;101972.59;;;13.33;90.21
24666;BME280;29726;53.532;-1.478;2023-04-19T07:08:19;102005.78;;;13.59;90.28
24666;BME280;29726;53.532;-1.478;2023-04-19T07:11:04;101937.75;;;13.09;90.25
24666;BME280;29726;53.532;-1.478;2023-04-19T07:13:49;101912.06;;;12.98;90.20
24666;BME280;29726;53.532;-1.478;2023-04-19T07:16:33;101983.00;;;13.45;90.43
24666;BME280;29726;53.532;-1.478;2023-04-19T07:19:20;101987.28;;;13.49;90.18
24666;BME280;29726;53.532;-1.478;2023-04-19T07:22:07;101971.47;;;13.30;90.24
24666;BME280;29726;53.532;-1.478;2023-04-19T07:24:52;101964.84;;;13.37;90.39
24666;BME280;29726;53.532;-1.478;2023-04-19T07:27:36;101975.72;;;13.35;90.15
24666;BME280;29726;53.532;-1.478;2023-04-19T07:30:20;101961.03;;;13.31;90.19
24666;BME280;29726;53.532;-1.478;2023-04-19T07:33:05;101951.31;;;13.23;90.45
24666;BME280;29726;53.532;-1.478;2023-04-19T07:35:54;101989.41;;;13.45;90.40
24666;BME280;29726;53.532;-1.478;2023-04-19T07:38:39;101964.94;;;13.33;90.40
24666;BME280;29726;53.532;-1.478;2023-04-19T07:41:23;101958.25;;;13.31;90.43
24666;BME280;29726;53.532;-1.478;2023-04-19T07:44:07;101964.94;;;13.33;90.40
24666;BME280;29726;53.532;-1.478;2023-04-19T07:46:51;102002.97;;;13.59;90.43
24666;BME280;29726;53.532;-1.478;2023-04-19T07:49:36;101936.81;;;13.25;90.60
24666;BME280;29726;53.532;-1.478;2023-04-19T07:52:20;101977.28;;;13.48;90.91
24666;BME280;29726;53.532;-1.478;2023-04-19T07:55:07;101973.56;;;13.51;90.76
24666;BME280;29726;53.532;-1.478;2023-04-19T07:57:52;101939.72;;;13.33;90.87
24666;BME280;29726;53.532;-1.478;2023-04-19T08:00:36;101932.13;;;13.22;90.79
24666;BME280;29726;53.532;-1.478;2023-04-19T08:03:20;101977.41;;;13.57;91.45
24666;BME280;29726;53.532;-1.478;2023-04-19T08:06:05;101947.91;;;13.40;91.45
24666;BME280;29726;53.532;-1.478;2023-04-19T08:08:52;101941.50;;;13.40;91.47
24666;BME280;29726;53.532;-1.478;2023-04-19T08:11:36;101988.22;;;13.68;91.63
24666;BME280;29726;53.532;-1.478;2023-04-19T08:14:20;101952.59;;;13.43;91.61
24666;BME280;29726;53.532;-1.478;2023-04-19T08:17:04;101956.72;;;13.51;91.53
24666;BME280;29726;53.532;-1.478;2023-04-19T08:19:49;102010.09;;;13.85;92.19
24666;BME280;29726;53.532;-1.478;2023-04-19T08:22:37;101980.63;;;13.68;91.80
24666;BME280;29726;53.532;-1.478;2023-04-19T08:25:22;101967.81;;;13.67;91.91
24666;BME280;29726;53.532;-1.478;2023-04-19T08:28:10;101969.50;;;13.65;92.37
24666;BME280;29726;53.532;-1.478;2023-04-19T08:30:57;101941.03;;;13.54;92.24
24666;BME280;29726;53.532;-1.478;2023-04-19T08:33:41;101944.16;;;13.56;92.48
24666;BME280;29726;53.532;-1.478;2023-04-19T08:36:25;101975.88;;;13.78;92.59
24666;BME280;29726;53.532;-1.478;2023-04-19T08:39:12;101973.28;;;13.83;92.54
24666;BME280;29726;53.532;-1.478;2023-04-19T08:42:04;101957.72;;;13.70;92.45
24666;BME280;29726;53.532;-1.478;2023-04-19T08:44:53;101961.72;;;13.81;93.07
24666;BME280;29726;53.532;-1.478;2023-04-19T08:47:40;101944.13;;;13.68;93.04
24666;BME280;29726;53.532;-1.478;2023-04-19T08:50:24;101966.28;;;13.88;93.27
24666;BME280;29726;53.532;-1.478;2023-04-19T08:53:12;101958.22;;;13.77;93.27
24666;BME280;29726;53.532;-1.478;2023-04-19T08:55:57;101949.44;;;13.88;93.36
24666;BME280;29726;53.532;-1.478;2023-04-19T08:58:41;101980.16;;;14.04;93.56
24666;BME280;29726;53.532;-1.478;2023-04-19T09:01:25;101931.53;;;13.73;93.42
24666;BME280;29726;53.532;-1.478;2023-04-19T09:04:09;101936.91;;;13.80;93.98
24666;BME280;29726;53.532;-1.478;2023-04-19T09:06:54;101929.06;;;13.75;93.86
24666;BME280;29726;53.532;-1.478;2023-04-19T09:09:41;101948.19;;;13.89;94.07
24666;BME280;29726;53.532;-1.478;2023-04-19T09:12:25;101920.97;;;13.77;94.42
24666;BME280;29726;53.532;-1.478;2023-04-19T09:15:10;101976.63;;;14.12;94.11
24666;BME280;29726;53.532;-1.478;2023-04-19T09:18:07;101982.03;;;14.19;94.07
24666;BME280;29726;53.532;-1.478;2023-04-19T09:20:55;101974.41;;;14.20;94.76
24666;BME280;29726;53.532;-1.478;2023-04-19T09:23:46;101967.97;;;14.19;94.40
24666;BME280;29726;53.532;-1.478;2023-04-19T09:26:32;101980.72;;;14.33;94.50
24666;BME280;29726;53.532;-1.478;2023-04-19T09:29:16;101938.25;;;14.09;94.68
24666;BME280;29726;53.532;-1.478;2023-04-19T09:32:00;101970.19;;;14.24;94.93
24666;BME280;29726;53.532;-1.478;2023-04-19T09:35:10;101971.56;;;14.41;95.10
24666;BME280;29726;53.532;-1.478;2023-04-19T09:38:01;101959.81;;;14.34;95.22
24666;BME280;29726;53.532;-1.478;2023-04-19T09:40:45;101902.31;;;14.04;95.47
24666;BME280;29726;53.532;-1.478;2023-04-19T09:43:30;101957.53;;;14.41;95.80
24666;BME280;29726;53.532;-1.478;2023-04-19T09:46:34;101937.59;;;14.27;95.69
24666;BME280;29726;53.532;-1.478;2023-04-19T09:49:23;101945.31;;;14.35;95.64
24666;BME280;29726;53.532;-1.478;2023-04-19T09:52:09;101935.75;;;14.33;95.81
24666;BME280;29726;53.532;-1.478;2023-04-19T09:54:57;101900.88;;;14.21;96.17
24666;BME280;29726;53.532;-1.478;2023-04-19T09:57:43;101932.56;;;14.43;95.91
24666;BME280;29726;53.532;-1.478;2023-04-19T10:00:27;101929.63;;;14.47;96.19
24666;BME280;29726;53.532;-1.478;2023-04-19T10:03:30;101892.34;;;14.25;96.21
24666;BME280;29726;53.532;-1.478;2023-04-19T10:06:16;101917.25;;;14.44;96.70
24666;BME280;29726;53.532;-1.478;2023-04-19T10:09:02;101949.00;;;14.75;97.07
24666;BME280;29726;53.532;-1.478;2023-04-19T10:11:52;101915.00;;;14.61;97.03
24666;BME280;29726;53.532;-1.478;2023-04-19T10:14:38;101902.50;;;14.62;97.35
24666;BME280;29726;53.532;-1.478;2023-04-19T10:17:23;101912.91;;;14.74;97.40
24666;BME280;29726;53.532;-1.478;2023-04-19T10:20:11;101932.03;;;14.97;97.69
24666;BME280;29726;53.532;-1.478;2023-04-19T10:22:55;101891.19;;;14.74;97.62
24666;BME280;29726;53.532;-1.478;2023-04-19T10:25:45;101891.53;;;14.85;98.26
24666;BME280;29726;53.532;-1.478;2023-04-19T10:28:29;101899.53;;;14.96;98.72
24666;BME280;29726;53.532;-1.478;2023-04-19T10:31:14;101877.34;;;14.89;98.48
24666;BME280;29726;53.532;-1.478;2023-04-19T10:33:57;101862.66;;;14.94;98.94
24666;BME280;29726;53.532;-1.478;2023-04-19T10:36:43;101899.63;;;15.22;99.09
24666;BME280;29726;53.532;-1.478;2023-04-19T10:39:41;101915.94;;;15.36;99.08
24666;BME280;29726;53.532;-1.478;2023-04-19T10:43:28;101919.69;;;15.51;99.32
24666;BME280;29726;53.532;-1.478;2023-04-19T10:45:53;101921.13;;;15.56;99.57
24666;BME280;29726;53.532;-1.478;2023-04-19T10:49:12;101897.34;;;15.48;99.44
24666;BME280;29726;53.532;-1.478;2023-04-19T10:51:50;101903.63;;;15.52;99.32
24666;BME280;29726;53.532;-1.478;2023-04-19T10:54:37;101882.34;;;15.51;99.63
24666;BME280;29726;53.532;-1.478;2023-04-19T10:57:25;101912.38;;;15.81;99.75
24666;BME280;29726;53.532;-1.478;2023-04-19T11:00:20;101894.69;;;15.71;99.40
24666;BME280;29726;53.532;-1.478;2023-04-19T11:03:49;101908.31;;;15.91;99.71
24666;BME280;29726;53.532;-1.478;2023-04-19T11:06:36;101910.97;;;15.94;99.84
24666;BME280;29726;53.532;-1.478;2023-04-19T11:09:28;101886.41;;;15.77;99.84
24666;BME280;29726;53.532;-1.478;2023-04-19T11:12:15;101862.00;;;15.74;99.83
24666;BME280;29726;53.532;-1.478;2023-04-19T11:14:59;101855.75;;;15.70;100.00
24666;BME280;29726;53.532;-1.478;2023-04-19T11:17:51;101872.00;;;15.84;100.00
24666;BME280;29726;53.532;-1.478;2023-04-19T11:20:35;101865.13;;;15.85;100.00
24666;BME280;29726;53.532;-1.478;2023-04-19T11:23:19;101911.75;;;16.13;100.00
24666;BME280;29726;53.532;-1.478;2023-04-19T11:26:03;101847.16;;;15.82;100.00
24666;BME280;29726;53.532;-1.478;2023-04-19T11:28:48;101842.78;;;15.81;100.00
24666;BME280;29726;53.532;-1.478;2023-04-19T11:31:33;101897.47;;;16.16;99.90
24666;BME280;29726;53.532;-1.478;2023-04-19T11:34:21;101895.28;;;16.20;100.00
24666;BME280;29726;53.532;-1.478;2023-04-19T11:37:06;101904.50;;;16.30;100.00
24666;BME280;29726;53.532;-1.478;2023-04-19T11:39:52;101904.81;;;16.32;100.00
24666;BME280;29726;53.532;-1.478;2023-04-19T11:42:37;101898.25;;;16.35;100.00
24666;BME280;29726;53.532;-1.478;2023-04-19T11:45:39;101868.50;;;16.25;100.00
24666;BME280;29726;53.532;-1.478;2023-04-19T11:48:23;101878.50;;;16.35;100.00
24666;BME280;29726;53.532;-1.478;2023-04-19T11:51:07;101860.06;;;16.25;100.00
24666;BME280;29726;53.532;-1.478;2023-04-19T11:53:51;101875.25;;;16.36;100.00
24666;BME280;29726;53.532;-1.478;2023-04-19T11:56:59;101878.50;;;16.44;100.00
24666;BME280;29726;53.532;-1.478;2023-04-19T12:00:04;101893.78;;;16.70;100.00
24666;BME280;29726;53.532;-1.478;2023-04-19T12:02:55;101862.34;;;16.53;100.00
24666;BME280;29726;53.532;-1.478;2023-04-19T12:05:39;101870.75;;;16.62;100.00
24666;BME280;29726;53.532;-1.478;2023-04-19T12:08:34;101850.56;;;16.55;100.00
24666;BME280;29726;53.532;-1.478;2023-04-19T12:11:22;101852.31;;;16.52;100.00
24666;BME280;29726;53.532;-1.478;2023-04-19T12:14:08;101890.38;;;16.89;100.00
24666;BME280;29726;53.532;-1.478;2023-04-19T12:17:11;101854.16;;;16.64;100.00
24666;BME280;29726;53.532;-1.478;2023-04-19T12:19:59;101871.50;;;16.72;100.00
24666;BME280;29726;53.532;-1.478;2023-04-19T12:22:43;101848.94;;;16.72;100.00
24666;BME280;29726;53.532;-1.478;2023-04-19T12:25:31;101897.19;;;17.06;100.00
24666;BME280;29726;53.532;-1.478;2023-04-19T12:28:16;101845.13;;;16.83;100.00
24666;BME280;29726;53.532;-1.478;2023-04-19T12:31:00;101885.25;;;17.11;100.00
24666;BME280;29726;53.532;-1.478;2023-04-19T12:33:44;101879.13;;;17.12;100.00
24666;BME280;29726;53.532;-1.478;2023-04-19T12:36:28;101795.94;;;16.75;100.00
24666;BME280;29726;53.532;-1.478;2023-04-19T12:39:13;101876.53;;;17.23;100.00
24666;BME280;29726;53.532;-1.478;2023-04-19T12:41:57;101843.72;;;17.11;100.00
24666;BME280;29726;53.532;-1.478;2023-04-19T12:44:41;101857.38;;;17.27;100.00
24666;BME280;29726;53.532;-1.478;2023-04-19T12:47:31;101851.13;;;17.23;100.00
24666;BME280;29726;53.532;-1.478;2023-04-19T12:50:15;101841.06;;;17.31;100.00
24666;BME280;29726;53.532;-1.478;2023-04-19T12:53:00;101844.31;;;17.39;100.00
24666;BME280;29726;53.532;-1.478;2023-04-19T12:55:44;101880.53;;;17.64;100.00
24666;BME280;29726;53.532;-1.478;2023-04-19T12:58:33;101843.00;;;17.49;100.00
24666;BME280;29726;53.532;-1.478;2023-04-19T13:01:17;101865.16;;;17.65;100.00
24666;BME280;29726;53.532;-1.478;2023-04-19T13:04:01;101837.09;;;17.61;100.00
24666;BME280;29726;53.532;-1.478;2023-04-19T13:06:45;101878.25;;;17.91;99.83
24666;BME280;29726;53.532;-1.478;2023-04-19T13:09:32;101842.75;;;17.76;99.70
24666;BME280;29726;53.532;-1.478;2023-04-19T13:12:16;101826.00;;;17.72;99.62
24666;BME280;29726;53.532;-1.478;2023-04-19T13:15:05;101867.47;;;18.04;99.30
24666;BME280;29726;53.532;-1.478;2023-04-19T13:17:53;101874.44;;;18.09;99.10
24666;BME280;29726;53.532;-1.478;2023-04-19T13:20:37;101855.84;;;18.17;99.60
24666;BME280;29726;53.532;-1.478;2023-04-19T13:23:21;101862.69;;;18.10;99.50
24666;BME280;29726;53.532;-1.478;2023-04-19T13:26:05;101889.13;;;18.36;99.28
24666;BME280;29726;53.532;-1.478;2023-04-19T13:28:50;101820.84;;;18.00;99.35
24666;BME280;29726;53.532;-1.478;2023-04-19T13:31:38;101859.19;;;18.30;99.16
24666;BME280;29726;53.532;-1.478;2023-04-19T13:34:25;101848.97;;;18.32;98.72
24666;BME280;29726;53.532;-1.478;2023-04-19T13:37:09;101845.44;;;18.37;98.73
24666;BME280;29726;53.532;-1.478;2023-04-19T13:39:53;101844.47;;;18.40;98.75
24666;BME280;29726;53.532;-1.478;2023-04-19T13:42:40;101853.75;;;18.41;98.22
24666;BME280;29726;53.532;-1.478;2023-04-19T13:45:24;101857.53;;;18.52;97.89
24666;BME280;29726;53.532;-1.478;2023-04-19T13:48:08;101844.94;;;18.53;97.91
24666;BME280;29726;53.532;-1.478;2023-04-19T13:50:53;101854.69;;;18.52;97.83
24666;BME280;29726;53.532;-1.478;2023-04-19T13:53:37;101849.72;;;18.61;97.69
24666;BME280;29726;53.532;-1.478;2023-04-19T13:56:23;101849.00;;;18.66;96.65
24666;BME280;29726;53.532;-1.478;2023-04-19T13:59:07;101871.72;;;18.86;96.31
24666;BME280;29726;53.532;-1.478;2023-04-19T14:01:51;101867.19;;;18.94;96.44
24666;BME280;29726;53.532;-1.478;2023-04-19T14:04:38;101880.44;;;19.03;96.19
24666;BME280;29726;53.532;-1.478;2023-04-19T14:07:22;101853.53;;;18.93;95.41
24666;BME280;29726;53.532;-1.478;2023-04-19T14:10:07;101850.72;;;18.93;95.11
24666;BME280;29726;53.532;-1.478;2023-04-19T14:12:52;101888.56;;;19.30;95.60